Time;durP1;ratioP1;P1;durP2;ratioP2;P2;SDS_P1;SDS_P2;PMS_P1;PMS_P2;Temp;Humidity;BMP_temperature;BMP_pressure;BME280_temperature;BME280_humidity;BME280_pressure;Samples;Min_cycle;Max_cycle;Signal;HPM_P1;HPM_P2
2021/05/07 00:01:07;;;;;;;7.13;5.33;;;;;;;8.59;51.60;100171.44;5118393;28;20183;-62
2021/05/07 00:03:33;;;;;;;7.73;4.30;;;;;;;8.61;52.16;100179.22;5111398;28;20841;-62
2021/05/07 00:05:59;;;;;;;7.47;4.20;;;;;;;8.64;51.91;100165.41;5098074;28;20513;-62
2021/05/07 00:08:26;;;;;;;6.20;3.80;;;;;;;8.82;51.70;100165.53;5098335;28;20442;-62
2021/05/07 00:10:52;;;;;;;6.07;4.13;;;;;;;8.39;52.79;100165.16;5097965;28;20198;-61
2021/05/07 00:13:17;;;;;;;6.03;5.03;;;;;;;8.15;53.16;100170.97;5098233;28;20423;-63
2021/05/07 00:15:42;;;;;;;10.67;5.50;;;;;;;8.74;52.36;100175.88;5098763;28;20168;-61
2021/05/07 00:18:08;;;;;;;8.90;4.40;;;;;;;8.48;52.02;100170.44;5106967;28;20175;-61
2021/05/07 00:20:34;;;;;;;6.93;4.50;;;;;;;8.29;52.91;100174.56;5118365;28;20543;-62
2021/05/07 00:22:59;;;;;;;5.53;4.93;;;;;;;8.31;52.85;100171.97;5118381;28;20155;-62
2021/05/07 00:25:25;;;;;;;8.50;5.43;;;;;;;8.26;52.74;100174.53;5105420;28;20457;-61
2021/05/07 00:28:04;;;;;;;6.70;5.03;;;;;;;8.37;52.35;100174.66;5097877;28;20202;-61
2021/05/07 00:30:29;;;;;;;7.90;5.47;;;;;;;8.32;52.69;100179.81;5103548;28;20524;-61
2021/05/07 00:32:55;;;;;;;8.67;5.33;;;;;;;8.12;54.13;100182.19;5121970;28;20500;-62
2021/05/07 00:35:20;;;;;;;7.07;5.27;;;;;;;8.39;52.72;100181.59;5122691;28;20251;-62
2021/05/07 00:37:46;;;;;;;8.30;5.97;;;;;;;8.20;52.66;100177.06;5121996;28;20242;-61
2021/05/07 00:40:12;;;;;;;7.60;5.63;;;;;;;8.20;52.75;100171.88;5121940;27;20556;-62
2021/05/07 00:42:38;;;;;;;12.73;6.20;;;;;;;8.32;52.74;100168.53;5122259;28;20230;-61
2021/05/07 00:45:04;;;;;;;12.50;5.30;;;;;;;8.26;53.27;100180.59;5111636;28;20524;-61
2021/05/07 00:47:30;;;;;;;11.10;5.73;;;;;;;8.33;53.08;100172.88;5101414;28;20173;-61
2021/05/07 00:49:55;;;;;;;7.13;4.87;;;;;;;8.58;52.80;100174.00;5102624;28;20486;-61
2021/05/07 00:52:20;;;;;;;12.07;6.07;;;;;;;8.41;52.48;100179.88;5101287;28;20278;-62
2021/05/07 00:54:46;;;;;;;11.73;6.20;;;;;;;8.71;52.42;100178.47;5101300;28;20164;-62
2021/05/07 00:57:11;;;;;;;10.90;5.97;;;;;;;8.32;52.76;100179.81;5101717;28;20525;-61
2021/05/07 00:59:37;;;;;;;7.77;5.10;;;;;;;8.29;52.42;100178.91;5100821;28;20180;-62
2021/05/07 01:02:02;;;;;;;9.43;5.47;;;;;;;8.29;52.92;100181.50;5100340;28;20464;-62
2021/05/07 01:04:27;;;;;;;9.43;5.80;;;;;;;8.40;52.89;100183.34;5101734;28;20175;-62
2021/05/07 01:06:53;;;;;;;7.27;5.13;;;;;;;8.39;53.20;100185.94;5101044;28;20169;-62
2021/05/07 01:09:18;;;;;;;8.17;4.77;;;;;;;8.67;52.32;100181.84;5100920;28;20183;-62
2021/05/07 01:11:44;;;;;;;8.73;5.73;;;;;;;8.62;52.39;100180.97;5113076;28;20209;-61
2021/05/07 01:14:09;;;;;;;8.73;5.03;;;;;;;8.67;52.54;100176.66;5100196;28;20217;-61
2021/05/07 01:16:34;;;;;;;8.10;5.20;;;;;;;8.36;53.23;100175.50;5099891;28;20187;-61
2021/05/07 01:19:03;;;;;;;9.47;5.50;;;;;;;8.80;52.63;100167.25;5100915;28;20176;-62
2021/05/07 01:21:29;;;;;;;5.37;4.67;;;;;;;8.69;52.10;100169.75;5100430;28;20418;-62
2021/05/07 01:23:54;;;;;;;9.73;5.07;;;;;;;8.70;53.24;100175.81;5104108;28;20430;-62
2021/05/07 01:26:20;;;;;;;10.37;5.20;;;;;;;8.69;53.95;100167.16;5121240;28;20804;-62
2021/05/07 01:28:45;;;;;;;7.70;5.67;;;;;;;8.58;53.58;100163.63;5113695;28;20410;-62
2021/05/07 01:31:11;;;;;;;10.80;4.53;;;;;;;8.81;52.68;100162.91;5100240;28;20290;-62
2021/05/07 01:33:37;;;;;;;7.37;4.10;;;;;;;8.67;52.45;100161.06;5100813;28;20164;-61
2021/05/07 01:36:03;;;;;;;9.00;4.00;;;;;;;8.28;52.94;100159.84;5100355;28;20557;-61
2021/05/07 01:38:29;;;;;;;7.13;4.37;;;;;;;8.50;52.69;100170.47;5100449;28;20425;-62
2021/05/07 01:40:54;;;;;;;10.63;4.93;;;;;;;8.50;52.87;100170.47;5100340;28;20844;-62
2021/05/07 01:43:20;;;;;;;10.33;5.30;;;;;;;8.76;52.46;100166.34;5099889;28;20576;-61
2021/05/07 01:45:47;;;;;;;14.60;6.17;;;;;;;8.88;52.67;100167.31;5100266;28;20179;-62
2021/05/07 01:48:13;;;;;;;7.33;5.27;;;;;;;8.54;52.59;100169.66;5101476;28;20441;-62
2021/05/07 01:50:42;;;;;;;6.93;4.30;;;;;;;8.74;52.25;100169.78;5099511;28;20442;-61
2021/05/07 01:53:07;;;;;;;11.80;4.30;;;;;;;8.71;52.11;100177.56;5100151;28;20721;-61
2021/05/07 01:55:38;;;;;;;6.70;4.70;;;;;;;8.64;52.15;100173.19;5100523;28;20398;-61
2021/05/07 01:58:04;;;;;;;8.70;5.10;;;;;;;8.79;51.93;100178.50;5100101;28;20446;-61
2021/05/07 02:00:31;;;;;;;11.53;4.73;;;;;;;8.50;53.11;100178.28;5099918;28;20434;-61
2021/05/07 02:02:57;;;;;;;10.30;5.63;;;;;;;8.56;53.23;100186.09;5100390;28;20418;-61
2021/05/07 02:05:26;;;;;;;8.40;4.80;;;;;;;8.32;53.23;100186.72;5099952;28;20434;-63
2021/05/07 02:07:51;;;;;;;7.83;5.90;;;;;;;8.56;53.51;100188.69;5100209;28;20838;-62
2021/05/07 02:10:19;;;;;;;12.50;5.40;;;;;;;8.57;53.75;100187.84;5100571;28;20399;-61
2021/05/07 02:12:45;;;;;;;7.77;5.33;;;;;;;8.85;53.93;100193.25;5099560;28;20219;-62
2021/05/07 02:15:13;;;;;;;6.87;4.60;;;;;;;8.60;53.73;100190.47;5099721;28;20418;-61
2021/05/07 02:17:39;;;;;;;7.17;4.60;;;;;;;8.28;54.43;100185.81;5100065;28;20156;-62
2021/05/07 02:20:06;;;;;;;8.70;5.00;;;;;;;8.67;53.04;100196.59;5099600;28;20445;-61
2021/05/07 02:22:32;;;;;;;12.93;8.37;;;;;;;8.72;53.22;100198.38;5099460;28;20417;-62
2021/05/07 02:24:57;;;;;;;6.93;5.10;;;;;;;8.68;52.74;100201.78;5110666;28;20743;-63
2021/05/07 02:27:22;;;;;;;12.40;5.90;;;;;;;8.89;52.87;100193.31;5117816;28;20167;-62
2021/05/07 02:29:47;;;;;;;10.40;6.37;;;;;;;8.62;53.47;100204.38;5119944;28;20547;-62
2021/05/07 02:32:13;;;;;;;10.30;6.17;;;;;;;7.98;55.35;100207.97;5119625;28;20210;-62
2021/05/07 02:34:38;;;;;;;11.50;5.50;;;;;;;8.49;54.21;100207.69;5119759;28;20168;-62
2021/05/07 02:37:03;;;;;;;7.30;5.30;;;;;;;8.66;53.47;100200.94;5120259;28;20168;-62
2021/05/07 02:39:29;;;;;;;8.00;6.20;;;;;;;8.52;54.24;100207.72;5119785;27;20500;-62
2021/05/07 02:41:54;;;;;;;8.13;4.80;;;;;;;8.49;53.52;100212.91;5119532;28;20446;-62
2021/05/07 02:44:19;;;;;;;8.37;4.57;;;;;;;7.96;55.45;100214.91;5115713;28;20549;-62
2021/05/07 02:46:45;;;;;;;10.30;4.73;;;;;;;7.78;55.56;100219.84;5099128;28;20172;-62
2021/05/07 02:49:10;;;;;;;5.93;3.40;;;;;;;7.66;56.30;100217.97;5099289;28;20199;-62
2021/05/07 02:51:35;;;;;;;6.87;4.00;;;;;;;7.68;57.27;100211.94;5099297;28;20196;-62
2021/05/07 02:54:03;;;;;;;6.77;4.30;;;;;;;8.01;57.90;100217.53;5098222;28;20188;-62
2021/05/07 02:56:28;;;;;;;6.73;4.93;;;;;;;8.23;58.31;100222.13;5098884;28;20171;-62
2021/05/07 02:58:54;;;;;;;10.00;5.07;;;;;;;8.21;59.28;100223.84;5099692;28;20403;-61
2021/05/07 03:01:20;;;;;;;5.33;4.60;;;;;;;7.92;60.51;100220.91;5098689;28;20447;-62
2021/05/07 03:03:45;;;;;;;6.70;4.87;;;;;;;7.99;60.84;100222.72;5098844;28;20194;-62
2021/05/07 03:06:11;;;;;;;6.47;5.83;;;;;;;7.96;60.89;100214.03;5099517;28;20180;-62
2021/05/07 03:08:37;;;;;;;8.40;4.77;;;;;;;7.73;61.04;100219.81;5110987;28;20185;-62
2021/05/07 03:11:02;;;;;;;8.33;5.13;;;;;;;7.96;60.30;100225.28;5119029;28;20254;-62
2021/05/07 03:13:28;;;;;;;9.20;6.80;;;;;;;8.04;58.75;100231.44;5119515;28;20505;-61
2021/05/07 03:15:53;;;;;;;7.10;4.70;;;;;;;8.00;59.01;100232.25;5119027;28;20175;-61
2021/05/07 03:18:19;;;;;;;4.83;4.40;;;;;;;7.94;59.99;100234.75;5119040;28;20229;-61
2021/05/07 03:20:45;;;;;;;6.87;4.63;;;;;;;7.81;59.94;100241.53;5119568;28;20164;-61
2021/05/07 03:23:11;;;;;;;5.23;4.23;;;;;;;7.86;60.69;100244.19;5119001;28;20708;-62
2021/05/07 03:25:36;;;;;;;8.40;5.20;;;;;;;7.79;60.74;100250.16;5098325;28;20563;-62
2021/05/07 03:28:02;;;;;;;6.10;4.70;;;;;;;7.85;60.88;100245.06;5099333;28;20228;-62
2021/05/07 03:30:27;;;;;;;6.40;4.13;;;;;;;7.99;60.30;100253.84;5098371;28;20168;-62
2021/05/07 03:32:52;;;;;;;6.53;4.80;;;;;;;7.99;60.60;100253.84;5098258;28;20204;-62
2021/05/07 03:35:18;;;;;;;6.40;4.80;;;;;;;7.37;61.85;100258.25;5098833;28;20164;-62
2021/05/07 03:37:43;;;;;;;7.20;4.10;;;;;;;7.36;62.53;100265.97;5098338;28;20168;-63
2021/05/07 03:40:09;;;;;;;5.20;4.43;;;;;;;7.45;62.66;100270.44;5110645;28;20582;-62
2021/05/07 03:42:35;;;;;;;4.13;3.80;;;;;;;7.28;62.56;100276.25;5116901;28;20251;-62
2021/05/07 03:45:00;;;;;;;9.77;4.20;;;;;;;7.54;61.80;100268.84;5111291;28;20453;-62
2021/05/07 03:47:25;;;;;;;6.67;4.47;;;;;;;7.97;60.80;100272.84;5118814;28;20608;-61
2021/05/07 03:49:51;;;;;;;6.53;4.50;;;;;;;7.74;62.57;100287.28;5119070;28;20202;-61
2021/05/07 03:52:16;;;;;;;6.53;4.30;;;;;;;7.66;62.46;100283.72;5118370;28;20199;-62
2021/05/07 03:54:43;;;;;;;5.47;4.97;;;;;;;7.32;63.19;100296.19;5118886;28;20171;-63
2021/05/07 03:57:08;;;;;;;6.17;4.73;;;;;;;7.86;62.81;100288.28;5118968;28;20163;-62
2021/05/07 03:59:34;;;;;;;6.87;5.70;;;;;;;7.65;62.48;100302.72;5116522;28;20425;-61
2021/05/07 04:01:59;;;;;;;5.80;4.83;;;;;;;7.67;62.19;100302.75;5118252;28;20460;-61
2021/05/07 04:04:24;;;;;;;5.10;4.40;;;;;;;7.91;62.09;100294.41;5107966;28;20544;-60
2021/05/07 04:06:50;;;;;;;8.97;4.40;;;;;;;7.42;63.50;100311.03;5101001;28;20168;-61
2021/05/07 04:09:22;;;;;;;4.10;3.70;;;;;;;7.55;62.39;100293.03;5102227;28;20179;-61
2021/05/07 04:14:13;;;;;;;7.00;4.33;;;;;;;7.66;62.75;100303.56;5112630;28;20446;-62
2021/05/07 04:16:38;;;;;;;5.00;4.40;;;;;;;7.75;62.97;100302.00;5118707;28;20175;-61
2021/05/07 04:19:03;;;;;;;7.43;3.90;;;;;;;7.55;63.05;100314.69;5102070;28;20180;-61
2021/05/07 04:21:29;;;;;;;6.40;3.80;;;;;;;7.58;63.04;100316.47;5101382;28;20554;-61
2021/05/07 04:23:54;;;;;;;5.33;4.80;;;;;;;7.75;63.29;100312.38;5101764;28;20203;-62
2021/05/07 04:26:20;;;;;;;5.47;4.13;;;;;;;7.61;63.19;100307.84;5102943;28;20224;-62
2021/05/07 04:28:46;;;;;;;3.80;3.50;;;;;;;7.38;64.06;100322.19;5101473;28;20195;-61
2021/05/07 04:31:11;;;;;;;4.90;4.50;;;;;;;7.43;63.48;100327.47;5108552;28;20203;-62
2021/05/07 04:33:36;;;;;;;4.73;4.23;;;;;;;7.27;63.78;100325.50;5101869;28;20835;-61
2021/05/07 04:36:02;;;;;;;4.53;4.13;;;;;;;6.99;64.69;100327.59;5107481;28;20183;-61
2021/05/07 04:38:27;;;;;;;5.80;5.20;;;;;;;7.26;64.69;100334.97;5120341;28;20219;-61
2021/05/07 04:40:52;;;;;;;5.53;4.90;;;;;;;7.29;64.54;100341.94;5114976;28;20197;-62
2021/05/07 04:43:18;;;;;;;5.50;4.83;;;;;;;7.18;64.99;100342.59;5120861;28;20426;-62
2021/05/07 04:45:43;;;;;;;7.93;5.10;;;;;;;7.38;65.61;100342.94;5121563;28;20163;-62
2021/05/07 04:48:13;;;;;;;5.67;5.17;;;;;;;7.40;65.94;100345.56;5115593;28;20176;-61
2021/05/07 04:50:39;;;;;;;6.37;5.13;;;;;;;7.07;67.33;100352.78;5100214;28;20491;-62
2021/05/07 04:53:05;;;;;;;7.07;5.63;;;;;;;7.22;67.74;100361.69;5113801;28;20519;-61
2021/05/07 04:55:30;;;;;;;7.50;5.03;;;;;;;7.09;67.57;100368.41;5101827;28;20414;-62
2021/05/07 04:57:55;;;;;;;7.00;4.97;;;;;;;6.88;68.07;100367.13;5113183;28;20171;-61
2021/05/07 05:00:21;;;;;;;5.07;4.50;;;;;;;7.34;66.13;100361.88;5117440;28;20214;-62
2021/05/07 05:02:46;;;;;;;6.37;5.30;;;;;;;6.93;67.08;100364.66;5113402;27;20187;-62
2021/05/07 05:05:13;;;;;;;6.43;4.63;;;;;;;7.76;65.18;100365.16;5142081;27;20555;-61
2021/05/07 05:07:38;;;;;;;9.00;6.70;;;;;;;7.38;67.26;100368.88;5138041;27;20578;-61
2021/05/07 05:10:04;;;;;;;7.47;5.23;;;;;;;7.42;65.71;100373.25;5101340;28;20414;-62
2021/05/07 05:12:29;;;;;;;9.33;5.30;;;;;;;7.28;67.12;100372.19;5100520;28;20562;-62
2021/05/07 05:14:54;;;;;;;11.57;7.40;;;;;;;7.46;66.71;100376.78;5099981;28;20433;-61
2021/05/07 05:17:20;;;;;;;7.10;5.37;;;;;;;7.48;66.99;100376.81;5107491;28;20179;-62
2021/05/07 05:19:47;;;;;;;7.20;6.27;;;;;;;7.42;67.27;100381.03;5121444;28;20171;-62
2021/05/07 05:22:13;;;;;;;6.47;5.50;;;;;;;7.46;67.26;100383.72;5107418;28;20552;-63
2021/05/07 05:24:38;;;;;;;8.40;5.47;;;;;;;7.37;67.12;100393.09;5120304;28;20457;-62
2021/05/07 05:27:04;;;;;;;6.70;4.93;;;;;;;7.47;66.37;100391.50;5114782;28;20750;-61
2021/05/07 05:29:29;;;;;;;7.03;6.33;;;;;;;7.76;65.88;100391.97;5102653;28;20301;-61
2021/05/07 05:31:55;;;;;;;6.13;5.53;;;;;;;7.58;66.32;100396.88;5100603;28;20287;-61
2021/05/07 05:34:20;;;;;;;9.77;5.90;;;;;;;7.63;66.46;100389.16;5100605;28;20188;-61
2021/05/07 05:36:46;;;;;;;7.53;6.83;;;;;;;7.83;66.05;100397.25;5100705;28;20170;-62
2021/05/07 05:39:14;;;;;;;7.00;5.73;;;;;;;7.63;64.94;100402.13;5101689;28;20586;-62
2021/05/07 05:41:40;;;;;;;8.27;6.60;;;;;;;7.83;64.74;100397.25;5102208;28;20554;-61
2021/05/07 05:44:06;;;;;;;9.37;6.63;;;;;;;8.04;64.34;100394.13;5121082;28;20409;-62
2021/05/07 05:46:31;;;;;;;7.57;5.60;;;;;;;7.68;63.97;100397.88;5107955;28;20195;-62
2021/05/07 05:48:57;;;;;;;7.43;5.50;;;;;;;7.35;64.56;100412.91;5100313;28;20402;-62
2021/05/07 05:51:22;;;;;;;6.53;5.93;;;;;;;7.99;63.75;100407.00;5100052;28;20192;-62
2021/05/07 05:53:47;;;;;;;6.13;5.30;;;;;;;7.58;64.82;100410.72;5099854;28;20172;-62
2021/05/07 05:56:13;;;;;;;6.67;5.67;;;;;;;8.19;62.47;100407.31;5101355;28;20213;-64
2021/05/07 05:58:38;;;;;;;6.40;5.70;;;;;;;7.55;65.06;100409.78;5115492;28;20613;-61
2021/05/07 06:01:04;;;;;;;6.80;6.30;;;;;;;8.01;63.60;100412.22;5117102;27;20210;-61
2021/05/07 06:03:29;;;;;;;7.97;5.60;;;;;;;8.01;64.19;100412.22;5118646;27;20450;-61
2021/05/07 06:05:54;;;;;;;7.30;5.77;;;;;;;7.84;65.09;100414.56;5125754;27;20179;-63
2021/05/07 06:08:20;;;;;;;7.77;6.30;;;;;;;7.83;64.44;100418.03;5120514;27;20301;-63
2021/05/07 06:10:45;;;;;;;6.03;5.43;;;;;;;7.63;64.04;100425.47;5105787;28;20191;-63
2021/05/07 06:13:10;;;;;;;5.77;5.27;;;;;;;8.15;63.62;100421.09;5103444;28;20200;-62
2021/05/07 06:15:36;;;;;;;5.30;4.80;;;;;;;8.30;62.37;100417.84;5120910;27;20270;-62
2021/05/07 06:18:01;;;;;;;5.50;5.00;;;;;;;8.64;61.54;100415.72;5122541;27;20201;-63
2021/05/07 06:20:26;;;;;;;5.30;4.80;;;;;;;8.30;63.16;100424.78;5125016;27;20195;-64
2021/05/07 06:22:52;;;;;;;5.40;4.90;;;;;;;8.56;62.26;100426.00;5109717;28;20460;-62
2021/05/07 06:25:20;;;;;;;8.03;5.17;;;;;;;8.48;62.57;100427.63;5099349;28;20220;-63
2021/05/07 06:27:45;;;;;;;5.30;4.80;;;;;;;8.58;62.38;100428.63;5103382;28;20175;-62
2021/05/07 06:30:13;;;;;;;7.53;5.90;;;;;;;8.67;61.77;100433.94;5111929;28;20498;-63
2021/05/07 06:32:39;;;;;;;5.50;5.00;;;;;;;8.56;61.23;100439.00;5102318;27;20261;-62
2021/05/07 06:35:05;;;;;;;5.67;4.40;;;;;;;8.11;63.45;100437.47;5132206;27;20409;-63
2021/05/07 06:37:30;;;;;;;7.70;5.33;;;;;;;8.52;63.78;100433.75;5104851;28;20188;-63
2021/05/07 06:39:56;;;;;;;5.77;5.27;;;;;;;8.51;62.93;100432.00;5113600;28;20498;-63
2021/05/07 06:42:21;;;;;;;7.33;6.00;;;;;;;8.91;61.67;100437.69;5108683;27;20462;-62
2021/05/07 06:44:46;;;;;;;8.13;5.77;;;;;;;8.42;62.57;100440.53;5111813;28;20568;-62
2021/05/07 06:47:12;;;;;;;8.80;5.67;;;;;;;8.50;62.46;100443.25;5118577;28;20176;-62
2021/05/07 06:49:37;;;;;;;6.77;6.07;;;;;;;9.16;61.50;100441.44;5105747;28;20194;-62
2021/05/07 06:52:03;;;;;;;7.57;5.57;;;;;;;9.14;61.36;100442.28;5105410;28;20215;-62
2021/05/07 06:54:29;;;;;;;7.57;6.30;;;;;;;9.05;60.59;100441.31;5104016;28;20278;-62
2021/05/07 06:56:56;;;;;;;6.30;5.70;;;;;;;8.97;60.93;100449.88;5104307;28;20422;-63
2021/05/07 06:59:24;;;;;;;6.47;5.97;;;;;;;8.78;61.26;100460.06;5098119;28;20234;-62
2021/05/07 07:01:50;;;;;;;8.03;5.20;;;;;;;8.21;63.21;100459.25;5100586;28;20468;-62
2021/05/07 07:04:15;;;;;;;6.50;5.90;;;;;;;8.21;63.09;100462.75;5115833;28;20444;-62
2021/05/07 07:06:40;;;;;;;6.20;5.60;;;;;;;8.38;63.16;100467.31;5105444;27;20190;-61
2021/05/07 07:09:06;;;;;;;6.10;5.60;;;;;;;8.47;62.92;100471.78;5139178;27;20527;-62
2021/05/07 07:11:31;;;;;;;7.93;6.43;;;;;;;8.75;61.45;100465.22;5139327;27;20274;-62
2021/05/07 07:13:56;;;;;;;6.00;5.50;;;;;;;8.46;62.20;100476.09;5126276;27;20180;-61
2021/05/07 07:16:22;;;;;;;6.47;5.87;;;;;;;8.50;62.52;100482.22;5100201;28;20188;-62
2021/05/07 07:18:47;;;;;;;6.60;6.10;;;;;;;8.33;61.44;100482.81;5098497;28;20551;-62
2021/05/07 07:21:12;;;;;;;7.20;6.13;;;;;;;9.20;59.71;100473.53;5098577;28;20169;-62
2021/05/07 07:23:38;;;;;;;6.63;5.10;;;;;;;9.63;58.33;100483.53;5103412;28;20194;-61
2021/05/07 07:26:05;;;;;;;6.47;5.87;;;;;;;10.54;55.98;100471.19;5115064;28;20250;-62
2021/05/07 07:28:31;;;;;;;7.23;6.30;;;;;;;11.74;51.23;100471.53;5118413;28;20260;-62
2021/05/07 07:30:56;;;;;;;5.20;4.80;;;;;;;12.45;49.13;100471.50;5113513;28;20783;-62
2021/05/07 07:33:23;;;;;;;4.43;4.13;;;;;;;14.16;44.46;100458.31;5118259;28;20440;-63
2021/05/07 07:35:48;;;;;;;4.93;4.43;;;;;;;12.85;47.73;100470.50;5104138;28;20447;-63
2021/05/07 07:38:13;;;;;;;4.73;4.33;;;;;;;14.36;44.26;100463.34;5116603;28;20437;-63
2021/05/07 07:40:39;;;;;;;7.83;4.17;;;;;;;14.99;41.72;100459.13;5096369;28;20581;-62
2021/05/07 07:43:04;;;;;;;5.27;4.40;;;;;;;14.33;43.63;100463.38;5103045;28;20178;-63
2021/05/07 07:45:30;;;;;;;4.37;3.97;;;;;;;12.36;48.71;100471.53;5117655;28;20167;-63
2021/05/07 07:47:55;;;;;;;5.30;4.50;;;;;;;11.82;49.23;100473.31;5098948;28;20188;-62
2021/05/07 07:50:21;;;;;;;4.10;3.80;;;;;;;13.31;45.17;100458.94;5097606;28;20175;-63
2021/05/07 07:52:46;;;;;;;4.50;4.10;;;;;;;13.71;44.79;100474.41;5097707;28;20183;-62
2021/05/07 07:55:12;;;;;;;4.60;4.20;;;;;;;12.79;46.38;100471.41;5097607;28;20184;-62
2021/05/07 07:57:37;;;;;;;4.07;3.70;;;;;;;13.20;45.47;100466.00;5105872;28;20196;-62
2021/05/07 08:00:05;;;;;;;4.23;3.83;;;;;;;13.11;46.65;100483.50;5097873;28;20167;-61
2021/05/07 08:02:30;;;;;;;6.07;3.83;;;;;;;14.54;42.71;100475.38;5097350;28;20216;-63
2021/05/07 08:04:55;;;;;;;4.60;3.90;;;;;;;15.51;40.22;100477.69;5111512;28;20437;-63
2021/05/07 08:07:21;;;;;;;4.43;3.73;;;;;;;16.20;37.96;100462.59;5124665;28;20535;-63
2021/05/07 08:09:46;;;;;;;6.30;3.60;;;;;;;14.18;41.32;100479.25;5129257;27;20184;-63
2021/05/07 08:12:11;;;;;;;5.40;4.90;;;;;;;13.07;45.55;100497.47;5116958;28;20203;-62
2021/05/07 08:14:37;;;;;;;3.63;3.30;;;;;;;11.48;49.85;100521.13;5115023;28;20208;-63
2021/05/07 08:17:03;;;;;;;4.67;4.27;;;;;;;10.90;54.00;100533.06;5116808;28;20182;-63
2021/05/07 08:19:28;;;;;;;5.57;3.70;;;;;;;9.74;56.43;100544.34;5112350;28;20453;-62
2021/05/07 08:21:53;;;;;;;4.10;3.80;;;;;;;9.81;58.19;100540.09;5116534;28;20190;-62
2021/05/07 08:24:20;;;;;;;5.80;4.03;;;;;;;9.54;57.41;100551.94;5112454;28;20341;-61
2021/05/07 08:26:46;;;;;;;3.73;3.43;;;;;;;9.75;57.55;100548.72;5103079;28;20191;-62
2021/05/07 08:29:11;;;;;;;3.80;3.47;;;;;;;9.59;57.53;100556.38;5101701;28;20412;-62
2021/05/07 08:31:36;;;;;;;4.00;3.60;;;;;;;9.83;57.91;100559.22;5100125;28;20216;-63
2021/05/07 08:34:02;;;;;;;6.57;3.97;;;;;;;9.66;58.69;100572.94;5106212;28;20188;-62
2021/05/07 08:36:28;;;;;;;3.20;2.90;;;;;;;9.58;57.38;100578.03;5097077;28;20507;-63
2021/05/07 08:38:53;;;;;;;4.40;3.23;;;;;;;9.07;59.94;100584.38;5097648;28;20612;-62
2021/05/07 08:41:19;;;;;;;3.13;2.83;;;;;;;9.51;58.04;100580.56;5098576;28;20437;-61
2021/05/07 08:43:44;;;;;;;3.70;3.00;;;;;;;9.77;58.02;100576.50;5110525;28;20229;-62
2021/05/07 08:46:09;;;;;;;4.50;4.10;;;;;;;9.40;56.94;100583.91;5105969;28;20440;-63
2021/05/07 08:48:38;;;;;;;3.23;2.90;;;;;;;10.07;56.32;100582.88;5109471;28;20187;-61
2021/05/07 08:51:03;;;;;;;3.70;3.23;;;;;;;10.65;53.22;100588.56;5099891;28;20191;-62
2021/05/07 08:53:30;;;;;;;3.73;3.30;;;;;;;12.47;49.69;100583.94;5100570;28;20875;-61
2021/05/07 08:55:55;;;;;;;4.80;2.97;;;;;;;14.39;44.25;100568.22;5106306;28;20187;-62
2021/05/07 08:58:20;;;;;;;3.47;2.80;;;;;;;13.63;44.94;100567.91;5108300;28;20442;-63
2021/05/07 09:00:46;;;;;;;2.23;2.03;;;;;;;14.97;44.19;100564.16;5101234;28;20176;-62
2021/05/07 09:03:13;;;;;;;3.03;2.40;;;;;;;15.36;41.42;100563.72;5104655;28;20576;-61
2021/05/07 09:05:39;;;;;;;3.13;2.83;;;;;;;15.22;41.43;100560.38;5110990;28;20183;-62
2021/05/07 09:08:08;;;;;;;2.80;2.40;;;;;;;15.92;41.72;100562.94;5105354;28;20821;-61
2021/05/07 09:10:41;;;;;;;2.90;2.60;;;;;;;16.60;39.08;100562.69;5111852;28;20846;-62
2021/05/07 09:13:09;;;;;;;3.20;2.70;;;;;;;16.55;39.45;100563.66;5118818;28;20461;-62
2021/05/07 09:15:48;;;;;;;3.03;2.77;;;;;;;14.76;41.46;100570.53;5120864;28;20448;-62
2021/05/07 09:18:15;;;;;;;2.67;2.47;;;;;;;13.42;43.59;100574.13;5119540;28;20702;-63
2021/05/07 09:20:49;;;;;;;3.30;2.67;;;;;;;15.11;40.89;100574.53;5101393;28;20442;-63
2021/05/07 09:23:16;;;;;;;2.70;2.50;;;;;;;15.23;41.22;100580.50;5100634;27;20458;-62
2021/05/07 09:25:43;;;;;;;3.00;2.70;;;;;;;15.19;41.16;100581.44;5109280;28;20515;-62
2021/05/07 09:28:16;;;;;;;2.60;2.40;;;;;;;14.12;41.66;100591.16;5102827;28;20438;-62
2021/05/07 09:30:43;;;;;;;4.20;3.40;;;;;;;14.20;42.67;100598.97;5105898;28;20461;-63
2021/05/07 09:33:11;;;;;;;3.40;3.10;;;;;;;14.75;41.85;100592.41;5106150;28;20604;-62
2021/05/07 09:35:37;;;;;;;2.97;2.67;;;;;;;13.34;44.12;100597.69;5106547;28;20404;-63
2021/05/07 09:38:05;;;;;;;3.13;2.77;;;;;;;14.73;40.78;100599.41;5102099;28;20483;-62
2021/05/07 09:40:32;;;;;;;3.17;2.90;;;;;;;16.38;38.31;100600.81;5104886;28;20405;-62
2021/05/07 09:43:08;;;;;;;3.40;2.50;;;;;;;14.28;40.92;100604.16;5119087;28;20441;-62
2021/05/07 09:45:34;;;;;;;4.23;3.10;;;;;;;13.71;42.09;100608.03;5119632;28;20476;-62
2021/05/07 09:48:00;;;;;;;3.90;3.10;;;;;;;13.52;45.47;100606.34;5116123;28;20497;-62
2021/05/07 09:50:38;;;;;;;3.70;3.30;;;;;;;12.67;47.65;100619.66;5099827;28;20444;-62
2021/05/07 09:53:14;;;;;;;3.93;3.50;;;;;;;12.28;48.40;100620.53;5109567;27;20209;-62
2021/05/07 09:55:40;;;;;;;3.27;2.97;;;;;;;11.83;49.61;100631.75;5106160;27;20441;-61
2021/05/07 09:58:06;;;;;;;3.63;3.30;;;;;;;12.75;48.46;100626.63;5100227;27;20519;-61
2021/05/07 10:00:32;;;;;;;3.90;3.10;;;;;;;12.63;47.17;100637.97;5112595;28;20563;-63
2021/05/07 10:02:57;;;;;;;2.97;2.67;;;;;;;11.10;49.51;100649.72;5112067;28;20860;-63
2021/05/07 10:05:23;;;;;;;3.00;2.80;;;;;;;10.88;51.12;100651.28;5098418;28;20195;-61
2021/05/07 10:07:49;;;;;;;2.50;2.30;;;;;;;10.74;50.90;100657.31;5102168;27;20188;-64
2021/05/07 10:10:14;;;;;;;2.67;2.47;;;;;;;10.10;52.19;100667.97;5102315;28;20436;-65
2021/05/07 10:12:41;;;;;;;3.20;2.90;;;;;;;10.87;52.53;100652.19;5118831;28;20548;-62
2021/05/07 10:15:07;;;;;;;2.60;2.10;;;;;;;12.55;47.05;100657.16;5098171;28;20180;-63
2021/05/07 10:17:33;;;;;;;2.70;2.50;;;;;;;12.21;46.91;100649.28;5098723;28;20432;-63
2021/05/07 10:19:58;;;;;;;4.93;3.23;;;;;;;11.92;48.89;100658.78;5096990;28;20184;-62
2021/05/07 10:22:39;;;;;;;3.10;2.80;;;;;;;10.73;51.82;100676.41;5098141;28;20338;-63
2021/05/07 10:25:22;;;;;;;3.23;2.80;;;;;;;11.04;53.01;100674.03;5099000;28;20211;-61
2021/05/07 10:27:51;;;;;;;3.10;2.80;;;;;;;10.18;56.11;100678.50;5101166;28;20436;-61
2021/05/07 10:30:25;;;;;;;3.70;2.87;;;;;;;11.83;51.06;100674.41;5115550;28;20447;-62
2021/05/07 10:33:02;;;;;;;6.20;3.30;;;;;;;12.56;49.32;100667.59;5112432;28;20472;-63
2021/05/07 10:35:47;;;;;;;3.93;2.97;;;;;;;13.14;47.81;100661.44;5105270;28;20821;-63
2021/05/07 10:38:18;;;;;;;3.27;2.90;;;;;;;12.55;47.57;100670.22;5119531;28;20405;-64
2021/05/07 10:40:44;;;;;;;4.27;2.87;;;;;;;12.21;49.40;100675.44;5117526;28;20424;-63
2021/05/07 10:43:10;;;;;;;3.40;3.10;;;;;;;12.27;48.02;100678.03;5118832;28;20555;-62
2021/05/07 10:45:39;;;;;;;4.60;3.20;;;;;;;11.56;51.08;100675.19;5119067;28;20738;-64
2021/05/07 10:48:18;;;;;;;3.70;3.10;;;;;;;11.15;51.51;100678.44;5119662;28;20559;-62
2021/05/07 10:50:44;;;;;;;3.87;3.47;;;;;;;11.53;50.64;100676.03;5103156;28;20426;-62
2021/05/07 10:53:10;;;;;;;3.40;3.10;;;;;;;11.84;49.61;100685.72;5100267;28;20683;-62
2021/05/07 10:55:36;;;;;;;3.43;3.13;;;;;;;12.01;49.06;100694.53;5099594;28;20444;-63
2021/05/07 10:58:04;;;;;;;3.87;3.20;;;;;;;11.99;48.14;100688.44;5109712;28;20450;-63
2021/05/07 11:00:39;;;;;;;4.40;3.67;;;;;;;12.00;48.79;100700.63;5112779;28;20437;-62
2021/05/07 11:03:05;;;;;;;4.07;3.23;;;;;;;12.66;46.36;100699.00;5118581;28;20491;-63
2021/05/07 11:05:45;;;;;;;4.23;3.63;;;;;;;12.08;47.21;100692.81;5100298;28;20515;-61
2021/05/07 11:08:11;;;;;;;4.30;3.60;;;;;;;13.39;42.56;100692.81;5110834;28;20497;-63
2021/05/07 11:10:37;;;;;;;4.97;3.33;;;;;;;14.37;39.37;100685.38;5118193;28;20421;-62
2021/05/07 11:13:02;;;;;;;5.13;3.50;;;;;;;14.52;38.30;100686.13;5102699;27;20211;-63
2021/05/07 11:15:27;;;;;;;3.43;3.13;;;;;;;15.73;36.14;100685.84;5097689;28;20174;-61
2021/05/07 11:18:05;;;;;;;6.03;3.30;;;;;;;15.46;35.96;100691.41;5097671;28;20168;-63
2021/05/07 11:20:37;;;;;;;4.03;3.30;;;;;;;15.01;36.87;100688.38;5096320;28;20274;-61
2021/05/07 11:23:04;;;;;;;4.10;3.10;;;;;;;15.04;34.76;100693.59;5104765;28;20412;-62
2021/05/07 11:25:31;;;;;;;3.93;3.10;;;;;;;14.08;36.84;100698.66;5118542;28;20457;-64
2021/05/07 11:27:59;;;;;;;3.20;2.90;;;;;;;13.82;37.71;100699.66;5104442;28;20438;-62